Sunday, May 27, 2018, 11:38 AM EDT
Back to Local

KMIV, Millville Municipal Airport

Location: Millville, NJ, United States Lat: 39.367
Local Time: 11:38 AM EDT (15:38 GMT) Lon: -75.083
Time Zone: US/Eastern Elev: 85 ft

Show me the last for .
Show Decoded

2018-05-27 11:27 METAR KMIV 271527Z AUTO 10SM FEW008 SCT014 BKN020 24/21 A2993 RMK AO2 T02440211
                 $ =
2018-05-27 11:15 METAR KMIV 271515Z AUTO VRB04KT 10SM SCT014 SCT019 BKN032 26/23 A2993 RMK AO2
                 LTG DSNT E T02610228 $ =
2018-05-27 10:54 METAR KMIV 271454Z AUTO 24004KT 10SM BKN014 BKN022 BKN030 25/22 A2993 RMK AO2
                 RAB14E27 SLP132 P0000 60000 T02500222 52002 $ =
2018-05-27 10:52 METAR KMIV 271452Z AUTO 23005KT 10SM BKN014 BKN022 BKN030 25/22 A2992 RMK AO2
                 RAB14E27 P0000 $ =
2018-05-27 10:44 METAR KMIV 271444Z AUTO 21005KT 10SM SCT014 BKN022 26/22 A2992 RMK AO2 RAB14E27
                 P0000 T02560222 $ =
2018-05-27 10:31 METAR KMIV 271431Z AUTO 24005KT 10SM BKN014 BKN020 OVC048 25/22 A2992 RMK AO2
                 RAB14E27 P0000 T02500222 $ =
2018-05-27 09:54 METAR KMIV 271354Z AUTO 21006KT 10SM BKN015 BKN022 OVC049 25/22 A2992 RMK AO2
                 SLP130 T02500222 $ =
2018-05-27 09:47 METAR KMIV 271347Z AUTO VRB05KT 10SM BKN015 OVC022 25/22 A2992 RMK AO2 T02500222
                 $ =
2018-05-27 09:20 METAR KMIV 271320Z AUTO VRB04KT 10SM BKN013 25/22 A2992 RMK AO2 T02500222 $ =
2018-05-27 08:54 METAR KMIV 271254Z AUTO 24006KT 10SM FEW013 24/22 A2992 RMK AO2 SLP130 T02440217
                 $ =
2018-05-27 08:27 METAR KMIV 271227Z AUTO 23006KT 10SM SCT011 BKN080 24/22 A2991 RMK AO2 T02440217
                 $ =
2018-05-27 07:54 METAR KMIV 271154Z AUTO VRB04KT 10SM BKN008 BKN020 23/22 A2991 RMK AO2 SLP127
                 60000 T02330217 10244 20228 51013 $ =
2018-05-27 06:54 METAR KMIV 271054Z AUTO VRB04KT 10SM BKN008 BKN030 BKN110 23/21 A2991 RMK AO2
                 CIG 007V011 SLP126 T02280211 $ =
2018-05-27 06:39 METAR KMIV 271039Z AUTO VRB05KT 10SM BKN008 BKN055 23/21 A2990 RMK AO2 CIG
                 007V011 T02280211 $ =
2018-05-27 05:54 METAR KMIV 270954Z AUTO VRB04KT 10SM FEW030 FEW035 23/21 A2988 RMK AO2 SLP116
                 T02280211 $ =
2018-05-27 04:54 METAR KMIV 270854Z AUTO VRB05KT 10SM FEW050 23/21 A2987 RMK AO2 RAE26 SLP113
                 P0000 60000 T02280211 56003 $ =
2018-05-27 03:54 METAR KMIV 270754Z AUTO VRB04KT 10SM -RA SCT033 BKN044 BKN065 23/21 A2988 RMK
                 AO2 LTG DSNT SW RAB47 SLP115 P0000 T02330206 $ =
2018-05-27 02:54 METAR KMIV 270654Z AUTO 00000KT 10SM CLR 24/21 A2988 RMK AO2 SLP115 T02390206 $
                 =
2018-05-27 01:54 METAR KMIV 270554Z AUTO 24003KT 10SM CLR 24/21 A2988 RMK AO2 SLP117 60000
                 T02440206 10272 20244 50002 $ =
2018-05-27 00:54 METAR KMIV 270454Z AUTO 24004KT 10SM SCT055 OVC100 25/22 A2989 RMK AO2 RAB25E40
                 SLP118 P0000 T02500217 $ =
2018-05-26 23:54 METAR KMIV 270354Z AUTO VRB03KT 10SM BKN120 25/22 A2989 RMK AO2 SLP119 T02500217
                 $ =
2018-05-26 22:54 METAR KMIV 270254Z AUTO 00000KT 10SM FEW060 FEW080 FEW110 25/22 A2988 RMK AO2
                 RAB33E43 SLP115 P0000 60000 T02500217 51015 $ =
2018-05-26 21:54 METAR KMIV 270154Z AUTO 00000KT 10SM CLR 25/22 A2987 RMK AO2 SLPNO T02500217 $ =
2018-05-26 20:54 METAR KMIV 270054Z AUTO 00000KT 10SM CLR 27/21 A2985 RMK AO2 SLPNO T02670206 $ =
2018-05-26 19:54 METAR KMIV 262354Z AUTO 24004KT 10SM FEW120 27/21 A2983 RMK AO2 SLPNO T02720211
                 10311 20272 53009 $ =
2018-05-26 18:54 METAR KMIV 262254Z AUTO 21003KT 10SM CLR 28/22 A2983 RMK AO2 LTG DSNT N SLPNO
                 T02830217 $ =
2018-05-26 17:54 METAR KMIV 262154Z AUTO 10SM CLR 29/21 A2981 RMK AO2 LTG DSNT N SLPNO T02940211
                 $ =
2018-05-26 16:54 METAR KMIV 262054Z AUTO VRB05KT 10SM CLR 31/21 A2981 RMK AO2 SLPNO T03110211
                 56008 $ =
2018-05-26 15:54 METAR KMIV 261954Z AUTO 25009KT 210V280 10SM FEW043 31/21 A2981 RMK AO2 SLPNO
                 T03110211 $ =
2018-05-26 14:54 METAR KMIV 261854Z AUTO 21007G15KT 10SM SCT110 31/21 A2982 RMK AO2 SLPNO
                 T03060211 $ =
2018-05-26 13:54 METAR KMIV 261754Z AUTO 24009KT 10SM CLR 31/21 A2983 RMK AO2 SLPNO T03060211
                 58013 $ =
2018-05-26 12:54 METAR KMIV 261654Z AUTO 23007KT 10SM CLR 29/21 A2984 RMK AO2 SLPNO T02940206 $ =
2018-05-26 11:54 METAR KMIV 261554Z AUTO 28004KT 10SM CLR 29/21 A2986 RMK AO2 SLPNO T02890206 $ =

Support USWX by starting your Amazon purchase here.